createdAt,value
2022-07-25T00:03:28.549Z,98.99
2022-07-25T00:07:30.237Z,98.63
2022-07-25T00:11:31.873Z,98.04
2022-07-25T00:15:33.437Z,98.04
2022-07-25T00:19:35.102Z,97.85
2022-07-25T00:23:36.729Z,97.55
2022-07-25T00:27:38.350Z,96.66
2022-07-25T00:31:40.040Z,96.55
2022-07-25T00:35:41.722Z,96.55
2022-07-25T00:39:43.406Z,96.26
2022-07-25T00:43:45.770Z,96.36
2022-07-25T00:47:47.349Z,97.30
2022-07-25T00:51:49.972Z,95.61
2022-07-25T00:55:52.111Z,98.19
2022-07-25T00:59:53.749Z,97.00
2022-07-25T01:03:55.439Z,95.86
2022-07-25T01:07:58.184Z,95.56
2022-07-25T01:11:59.805Z,96.45
2022-07-25T01:16:01.624Z,96.84
2022-07-25T01:20:03.632Z,97.14
2022-07-25T01:24:06.202Z,97.14
2022-07-25T01:28:08.014Z,97.14
2022-07-25T01:32:09.598Z,95.86
2022-07-25T01:36:11.360Z,94.37
2022-07-25T01:40:13.835Z,95.06
2022-07-25T01:44:17.216Z,95.80
2022-07-25T01:48:18.786Z,96.39
2022-07-25T01:52:21.670Z,96.69
2022-07-25T01:56:23.277Z,97.29
2022-07-25T02:00:25.482Z,97.39
2022-07-25T02:04:27.142Z,97.74
2022-07-25T02:08:29.892Z,97.83
2022-07-25T02:12:31.883Z,97.78
2022-07-25T02:16:33.620Z,97.68
2022-07-25T02:20:35.257Z,97.58
2022-07-25T02:24:37.188Z,97.98
2022-07-25T02:28:39.494Z,98.77
2022-07-25T02:32:41.127Z,99.37
2022-07-25T02:36:42.952Z,99.17
2022-07-25T02:40:44.509Z,99.07
2022-07-25T02:44:46.169Z,98.62
2022-07-25T02:48:47.833Z,98.08
2022-07-25T02:52:49.468Z,97.68
2022-07-25T02:56:51.062Z,97.38
2022-07-25T03:00:52.725Z,96.98
2022-07-25T03:04:54.356Z,96.89
2022-07-25T03:08:56.017Z,97.13
2022-07-25T03:12:57.587Z,97.33
2022-07-25T03:16:59.256Z,97.53
2022-07-25T03:21:01.237Z,97.83
2022-07-25T03:25:03.123Z,98.07
2022-07-25T03:29:04.799Z,98.37
2022-07-25T03:33:06.408Z,98.77
2022-07-25T03:37:07.971Z,98.87
2022-07-25T03:41:09.605Z,99.16
2022-07-25T03:45:11.568Z,99.07
2022-07-25T03:49:13.241Z,99.16
2022-07-25T03:53:14.896Z,99.16
2022-07-25T03:57:16.491Z,99.27
2022-07-25T04:01:18.074Z,99.46
2022-07-25T04:05:20.942Z,99.76
2022-07-25T04:09:22.519Z,99.76
2022-07-25T04:13:24.114Z,99.76
2022-07-25T04:17:25.870Z,99.76
2022-07-25T04:21:27.601Z,99.76
2022-07-25T04:25:29.161Z,99.87
2022-07-25T04:29:30.766Z,99.96
2022-07-25T04:33:32.366Z,99.99
2022-07-25T04:37:36.021Z,99.99
2022-07-25T04:41:37.611Z,99.99
2022-07-25T04:45:39.694Z,99.99
2022-07-25T04:49:41.308Z,99.99
2022-07-25T04:53:42.923Z,99.99
2022-07-25T04:57:44.464Z,99.99
2022-07-25T05:01:46.159Z,99.99
2022-07-25T05:05:47.807Z,99.99
2022-07-25T05:09:49.453Z,99.99
2022-07-25T05:13:51.006Z,99.99
2022-07-25T05:17:52.642Z,99.99
2022-07-25T05:21:54.240Z,99.99
2022-07-25T05:25:55.862Z,99.99
2022-07-25T05:29:57.527Z,99.99
2022-07-25T05:33:59.214Z,99.99
2022-07-25T05:38:00.791Z,99.99
2022-07-25T05:42:02.322Z,99.99
2022-07-25T05:46:05.374Z,99.99
2022-07-25T05:50:07.576Z,99.99
2022-07-25T05:54:09.638Z,99.99
2022-07-25T05:58:11.465Z,99.99
2022-07-25T06:02:13.119Z,99.99
2022-07-25T06:06:14.737Z,99.99
2022-07-25T06:10:16.452Z,99.99
2022-07-25T06:14:18.038Z,99.99
2022-07-25T06:18:19.742Z,99.99
2022-07-25T06:22:21.341Z,99.99
2022-07-25T06:26:24.695Z,99.99
2022-07-25T06:30:26.738Z,99.99
2022-07-25T06:34:28.903Z,99.99
2022-07-25T06:38:30.716Z,99.99
2022-07-25T06:42:33.354Z,99.99
2022-07-25T06:46:35.040Z,99.99
2022-07-25T06:50:36.746Z,99.99
2022-07-25T06:54:38.626Z,99.99
2022-07-25T06:58:40.445Z,99.99
2022-07-25T07:02:58.194Z,99.99
2022-07-25T07:07:00.094Z,99.99
2022-07-25T07:11:01.688Z,99.99
2022-07-25T07:15:03.549Z,99.99
2022-07-25T07:19:05.500Z,99.99
2022-07-25T07:23:07.431Z,99.99
2022-07-25T07:27:10.252Z,99.99
2022-07-25T07:31:16.982Z,99.99
2022-07-25T07:35:19.889Z,99.33
2022-07-25T07:39:21.522Z,98.88
2022-07-25T07:43:29.064Z,98.79
2022-07-25T07:47:31.425Z,98.34
2022-07-25T07:51:32.990Z,98.14
2022-07-25T07:55:48.720Z,97.60
2022-07-25T07:59:50.345Z,97.80
2022-07-25T08:03:51.933Z,97.55
2022-07-25T08:07:54.183Z,95.67
2022-07-25T08:11:55.817Z,96.03
2022-07-25T08:15:59.119Z,95.58
2022-07-25T08:20:14.735Z,95.39
2022-07-25T08:24:22.416Z,94.25
2022-07-25T08:28:25.045Z,93.66
2022-07-25T08:32:29.857Z,91.25
2022-07-25T08:36:34.830Z,92.82
2022-07-25T08:40:36.754Z,92.49
2022-07-25T08:44:41.254Z,91.75
2022-07-25T08:48:44.584Z,90.96
2022-07-25T08:52:48.235Z,91.51
2022-07-25T08:56:49.911Z,89.53
2022-07-25T09:00:51.595Z,90.67
2022-07-25T09:04:55.869Z,90.48
2022-07-25T09:09:00.306Z,90.14
2022-07-25T09:13:04.851Z,90.44
2022-07-25T09:17:07.095Z,89.90
2022-07-25T09:21:24.295Z,89.01
2022-07-25T09:25:31.128Z,89.36
2022-07-25T09:29:34.264Z,88.57
2022-07-25T09:33:48.832Z,87.35
2022-07-25T09:37:50.419Z,86.62
2022-07-25T09:41:52.063Z,85.93
2022-07-25T09:45:53.763Z,85.89
2022-07-25T09:49:55.889Z,85.60
2022-07-25T09:53:57.548Z,85.46
2022-07-25T09:57:59.208Z,84.63
2022-07-25T10:02:23.234Z,83.90
2022-07-25T10:06:35.977Z,83.14
2022-07-25T10:10:40.090Z,82.31
2022-07-25T10:14:42.028Z,81.98
2022-07-25T10:18:54.830Z,81.93
2022-07-25T10:22:57.573Z,81.64
2022-07-25T10:27:07.860Z,78.70
2022-07-25T10:31:33.841Z,79.10
2022-07-25T10:35:35.595Z,81.35
2022-07-25T10:39:39.400Z,81.64
2022-07-25T10:43:43.639Z,80.60
2022-07-25T10:47:55.710Z,81.45
2022-07-25T10:52:01.036Z,82.03
2022-07-25T10:56:08.498Z,82.72
2022-07-25T11:00:10.716Z,82.72
2022-07-25T11:04:15.811Z,82.82
2022-07-25T11:08:24.662Z,82.19
2022-07-25T11:12:26.917Z,81.60
2022-07-25T11:16:29.648Z,81.66
2022-07-25T11:20:31.266Z,80.25
2022-07-25T11:24:42.901Z,79.37
2022-07-25T11:28:47.736Z,77.67
2022-07-25T11:32:56.096Z,77.03
2022-07-25T11:36:59.720Z,76.54
2022-07-25T11:41:01.666Z,76.15
2022-07-25T11:45:03.499Z,75.72
2022-07-25T11:49:06.642Z,76.21
2022-07-25T11:53:14.448Z,75.33
2022-07-25T11:57:21.590Z,75.20
2022-07-25T12:01:24.720Z,76.13
2022-07-25T12:05:33.335Z,76.32
2022-07-25T12:09:34.953Z,76.29
2022-07-25T12:13:37.117Z,76.29
2022-07-25T12:17:38.845Z,76.54
2022-07-25T12:21:40.516Z,77.33
2022-07-25T12:25:45.303Z,76.15
2022-07-25T12:29:46.895Z,77.64
2022-07-25T12:33:49.319Z,76.12
2022-07-25T12:37:52.076Z,73.88
2022-07-25T12:41:54.247Z,72.90
2022-07-25T12:45:55.909Z,72.05
2022-07-25T12:49:57.612Z,70.40
2022-07-25T12:53:59.231Z,71.60
2022-07-25T12:58:01.128Z,71.50
2022-07-25T13:02:03.023Z,72.77
2022-07-25T13:06:05.067Z,71.11
2022-07-25T13:10:07.668Z,71.01
2022-07-25T13:14:09.506Z,69.00
2022-07-25T13:18:11.335Z,68.80
2022-07-25T13:22:13.049Z,68.42
2022-07-25T13:26:14.915Z,68.52
2022-07-25T13:30:16.578Z,70.47
2022-07-25T13:34:18.709Z,71.54
2022-07-25T13:38:20.485Z,71.18
2022-07-25T13:42:22.372Z,71.31
2022-07-25T13:46:24.540Z,71.55
2022-07-25T13:50:26.197Z,72.13
2022-07-25T13:54:27.780Z,72.07
2022-07-25T13:58:29.660Z,72.78
2022-07-25T14:02:31.750Z,73.08
2022-07-25T14:06:34.133Z,74.68
2022-07-25T14:10:35.797Z,87.26
2022-07-25T14:14:37.533Z,85.70
2022-07-25T14:18:39.133Z,83.26
2022-07-25T14:22:42.130Z,81.01
2022-07-25T14:26:43.702Z,78.63
2022-07-25T14:30:45.361Z,77.42
2022-07-25T14:34:47.004Z,76.31
2022-07-25T14:38:48.902Z,74.17
2022-07-25T14:42:50.522Z,73.84
2022-07-25T14:46:52.663Z,72.47
2022-07-25T14:50:54.719Z,72.02
2022-07-25T14:54:56.286Z,71.69
2022-07-25T14:58:58.135Z,71.36
2022-07-25T15:02:59.740Z,71.26
2022-07-25T15:07:01.385Z,69.77
2022-07-25T15:11:02.983Z,69.15
2022-07-25T15:15:05.312Z,69.51
2022-07-25T15:19:18.014Z,69.41
2022-07-25T15:23:21.104Z,67.92
2022-07-25T15:27:22.924Z,68.12
2022-07-25T15:31:26.410Z,69.38
2022-07-25T15:35:28.170Z,67.89
2022-07-25T15:39:29.982Z,67.83
2022-07-25T15:43:33.220Z,67.66
2022-07-25T15:47:34.894Z,68.15
2022-07-25T15:51:36.502Z,67.80
2022-07-25T15:55:39.751Z,66.89
2022-07-25T15:59:41.323Z,67.11
2022-07-25T16:03:43.337Z,67.96
2022-07-25T16:07:45.067Z,68.44
2022-07-25T16:11:46.688Z,68.02
2022-07-25T16:15:48.354Z,67.21
2022-07-25T16:19:49.999Z,67.54
2022-07-25T16:23:51.571Z,67.93
2022-07-25T16:27:54.048Z,68.57
2022-07-25T16:31:56.911Z,68.61
2022-07-25T16:35:58.603Z,68.77
2022-07-25T16:40:00.177Z,68.74
2022-07-25T16:44:01.778Z,68.90
2022-07-25T16:48:06.193Z,69.84
2022-07-25T16:52:07.812Z,70.43
2022-07-25T16:56:09.422Z,71.45
2022-07-25T17:00:11.608Z,71.51
2022-07-25T17:04:13.225Z,71.69
2022-07-25T17:08:14.860Z,72.11
2022-07-25T17:12:17.427Z,72.11
2022-07-25T17:16:19.305Z,71.36
2022-07-25T17:20:21.150Z,71.20
2022-07-25T17:24:22.759Z,71.04
2022-07-25T17:28:24.473Z,70.84
2022-07-25T17:32:29.741Z,70.84
2022-07-25T17:36:31.902Z,70.26
2022-07-25T17:40:34.101Z,68.62
2022-07-25T17:44:35.829Z,68.62
2022-07-25T17:48:37.564Z,69.38
2022-07-25T17:52:39.266Z,70.06
2022-07-25T17:56:40.916Z,70.89
2022-07-25T18:00:42.475Z,71.31
2022-07-25T18:04:44.311Z,71.90
2022-07-25T18:08:46.142Z,72.19
2022-07-25T18:12:48.364Z,72.59
2022-07-25T18:16:50.032Z,72.13
2022-07-25T18:20:51.697Z,71.94
2022-07-25T18:24:53.314Z,70.98
2022-07-25T18:28:55.187Z,70.40
2022-07-25T18:32:56.949Z,70.83
2022-07-25T18:36:58.824Z,71.02
2022-07-25T18:41:26.378Z,71.31
2022-07-25T18:45:22.187Z,71.71
2022-07-25T18:49:27.096Z,72.44
2022-07-25T18:53:28.699Z,73.02
2022-07-25T18:57:30.736Z,73.42
2022-07-25T19:01:32.433Z,73.85
2022-07-25T19:05:34.172Z,74.24
2022-07-25T19:09:36.056Z,74.73
2022-07-25T19:13:49.579Z,74.57
2022-07-25T19:17:51.893Z,74.90
2022-07-25T19:21:53.667Z,75.40
2022-07-25T19:25:55.405Z,75.89
2022-07-25T19:29:57.153Z,76.22
2022-07-25T19:33:58.821Z,76.72
2022-07-25T19:38:00.407Z,77.11
2022-07-25T19:42:02.905Z,77.34
2022-07-25T19:46:04.572Z,77.54
2022-07-25T19:50:06.956Z,77.94
2022-07-25T19:54:08.932Z,78.17
2022-07-25T19:58:10.840Z,78.37
2022-07-25T20:02:13.084Z,78.96
2022-07-25T20:06:14.891Z,79.59
2022-07-25T20:10:18.067Z,79.99
2022-07-25T20:14:19.894Z,80.18
2022-07-25T20:18:21.499Z,80.72
2022-07-25T20:22:23.378Z,81.01
2022-07-25T20:26:25.125Z,81.35
2022-07-25T20:30:29.296Z,81.55
2022-07-25T20:34:34.621Z,81.94
2022-07-25T20:38:36.542Z,82.08
2022-07-25T20:42:38.639Z,82.28
2022-07-25T20:46:40.413Z,82.48
2022-07-25T20:50:42.789Z,82.57
2022-07-25T20:54:44.472Z,82.78
2022-07-25T20:58:46.081Z,82.97
2022-07-25T21:02:47.794Z,83.07
2022-07-25T21:06:49.545Z,83.31
2022-07-25T21:10:51.436Z,83.40
2022-07-25T21:14:53.375Z,83.51
2022-07-25T21:18:57.050Z,83.54
2022-07-25T21:22:58.796Z,83.45
2022-07-25T21:27:00.447Z,83.75
2022-07-25T21:31:02.054Z,83.94
2022-07-25T21:35:05.469Z,83.94
2022-07-25T21:39:07.584Z,84.04
2022-07-25T21:43:12.920Z,84.14
2022-07-25T21:47:14.954Z,84.34
2022-07-25T21:51:19.093Z,84.64
2022-07-25T21:55:24.851Z,84.93
2022-07-25T21:59:26.430Z,85.17
2022-07-25T22:03:28.162Z,85.37
2022-07-25T22:07:29.789Z,85.57
2022-07-25T22:11:42.358Z,85.77
2022-07-25T22:15:48.378Z,85.77
2022-07-25T22:19:49.976Z,85.96
2022-07-25T22:23:51.588Z,85.96
2022-07-25T22:27:53.398Z,85.96
2022-07-25T22:31:55.124Z,85.77
2022-07-25T22:35:57.569Z,85.77
2022-07-25T22:40:01.123Z,85.82
2022-07-25T22:44:03.497Z,85.86
2022-07-25T22:48:05.237Z,85.92
2022-07-25T22:52:07.832Z,86.02
2022-07-25T22:56:09.544Z,86.02
2022-07-25T23:00:12.212Z,86.02
2022-07-25T23:04:14.020Z,85.86
2022-07-25T23:08:15.698Z,85.66
2022-07-25T23:12:18.582Z,85.27
2022-07-25T23:16:20.409Z,85.07
2022-07-25T23:20:22.163Z,84.88
2022-07-25T23:24:23.807Z,84.67
2022-07-25T23:28:25.381Z,84.58
2022-07-25T23:32:26.946Z,84.28
2022-07-25T23:36:28.494Z,84.58
2022-07-25T23:40:30.358Z,84.48
2022-07-25T23:44:32.053Z,84.52
2022-07-25T23:48:34.100Z,84.62
2022-07-25T23:52:35.750Z,84.52
2022-07-25T23:56:37.414Z,84.52
